createdAt,value
2018-03-02T00:01:51.636Z,-8.36
2018-03-02T00:04:19.260Z,-8.33
2018-03-02T00:06:46.932Z,-8.22
2018-03-02T00:09:15.003Z,-8.26
2018-03-02T00:11:42.999Z,-8.23
2018-03-02T00:14:10.747Z,-8.20
2018-03-02T00:16:38.374Z,-8.28
2018-03-02T00:19:07.082Z,-8.29
2018-03-02T00:21:34.983Z,-8.29
2018-03-02T00:24:02.656Z,-8.31
2018-03-02T00:26:30.249Z,-8.22
2018-03-02T00:28:57.886Z,-8.21
2018-03-02T00:31:25.521Z,-8.40
2018-03-02T00:33:53.164Z,-8.31
2018-03-02T00:36:21.624Z,-8.37
2018-03-02T00:38:49.219Z,-8.26
2018-03-02T00:41:17.050Z,-8.27
2018-03-02T00:43:44.747Z,-8.38
2018-03-02T00:46:12.604Z,-8.38
2018-03-02T00:48:40.316Z,-8.43
2018-03-02T00:51:08.303Z,-8.50
2018-03-02T00:53:36.238Z,-8.42
2018-03-02T00:56:04.023Z,-8.46
2018-03-02T00:58:31.819Z,-8.39
2018-03-02T01:00:59.487Z,-8.35
2018-03-02T01:03:27.473Z,-8.40
2018-03-02T01:05:55.827Z,-8.47
2018-03-02T01:08:23.829Z,-8.46
2018-03-02T01:10:51.528Z,-8.60
2018-03-02T01:13:20.290Z,-8.56
2018-03-02T01:15:48.045Z,-8.52
2018-03-02T01:18:16.164Z,-8.36
2018-03-02T01:20:43.798Z,-8.35
2018-03-02T01:23:12.300Z,-8.36
2018-03-02T01:25:39.868Z,-8.39
2018-03-02T01:28:07.654Z,-8.43
2018-03-02T01:30:35.258Z,-8.53
2018-03-02T01:33:02.870Z,-8.57
2018-03-02T01:35:30.762Z,-8.63
2018-03-02T01:37:58.604Z,-8.56
2018-03-02T01:40:26.175Z,-8.42
2018-03-02T01:42:53.750Z,-8.39
2018-03-02T01:45:21.737Z,-8.32
2018-03-02T01:47:49.389Z,-8.36
2018-03-02T01:50:17.557Z,-8.36
2018-03-02T01:52:45.414Z,-8.35
2018-03-02T01:55:13.496Z,-8.42
2018-03-02T01:57:41.260Z,-8.40
2018-03-02T02:00:09.090Z,-8.54
2018-03-02T02:02:36.659Z,-8.55
2018-03-02T02:05:05.181Z,-8.62
2018-03-02T02:07:32.916Z,-8.55
2018-03-02T02:10:00.979Z,-8.43
2018-03-02T02:12:28.785Z,-8.46
2018-03-02T02:14:56.404Z,-8.49
2018-03-02T02:17:24.110Z,-8.45
2018-03-02T02:19:51.684Z,-8.48
2018-03-02T02:22:19.270Z,-8.48
2018-03-02T02:24:46.984Z,-8.56
2018-03-02T02:27:14.932Z,-8.59
2018-03-02T02:29:43.309Z,-8.57
2018-03-02T02:32:11.684Z,-8.62
2018-03-02T02:34:39.286Z,-8.64
2018-03-02T02:37:07.312Z,-8.61
2018-03-02T02:39:35.082Z,-8.59
2018-03-02T02:42:03.776Z,-8.56
2018-03-02T02:44:31.444Z,-8.40
2018-03-02T02:46:59.311Z,-8.39
2018-03-02T02:49:27.766Z,-8.44
2018-03-02T02:51:55.666Z,-8.43
2018-03-02T02:54:24.627Z,-8.40
2018-03-02T02:56:52.444Z,-8.35
2018-03-02T02:59:20.399Z,-8.36
2018-03-02T03:01:49.636Z,-8.47
2018-03-02T03:04:17.814Z,-8.46
2018-03-02T03:06:48.513Z,-8.43
2018-03-02T03:09:16.189Z,-8.40
2018-03-02T03:11:43.975Z,-8.37
2018-03-02T03:14:15.661Z,-8.33
2018-03-02T03:16:48.077Z,-8.41
2018-03-02T03:19:18.257Z,-8.44
2018-03-02T03:21:46.107Z,-8.46
2018-03-02T03:24:16.313Z,-8.56
2018-03-02T03:26:44.930Z,-8.46
2018-03-02T03:29:12.566Z,-8.42
2018-03-02T03:31:40.119Z,-8.36
2018-03-02T03:34:07.759Z,-8.50
2018-03-02T03:36:35.379Z,-8.59
2018-03-02T03:39:10.008Z,-8.52
2018-03-02T03:41:39.766Z,-8.48
2018-03-02T03:44:10.518Z,-8.54
2018-03-02T03:46:38.119Z,-8.52
2018-03-02T03:49:06.183Z,-8.45
2018-03-02T03:51:33.817Z,-8.39
2018-03-02T03:54:01.401Z,-8.27
2018-03-02T03:56:30.942Z,-8.39
2018-03-02T03:58:58.546Z,-8.33
2018-03-02T04:01:26.181Z,-8.35
2018-03-02T04:03:54.523Z,-8.43
2018-03-02T04:06:22.966Z,-8.38
2018-03-02T04:08:50.580Z,-8.34
2018-03-02T04:11:18.648Z,-8.29
2018-03-02T04:13:46.331Z,-8.29
2018-03-02T04:16:13.979Z,-8.23
2018-03-02T04:18:41.551Z,-8.27
2018-03-02T04:21:09.191Z,-8.33
2018-03-02T04:23:37.272Z,-8.34
2018-03-02T04:26:04.874Z,-8.35
2018-03-02T04:28:32.480Z,-8.29
2018-03-02T04:31:00.085Z,-8.31
2018-03-02T04:33:29.567Z,-8.22
2018-03-02T04:35:57.204Z,-8.16
2018-03-02T04:38:24.772Z,-8.17
2018-03-02T04:40:52.354Z,-8.15
2018-03-02T04:43:20.581Z,-8.12
2018-03-02T04:45:49.214Z,-8.10
2018-03-02T04:48:16.882Z,-8.07
2018-03-02T04:50:44.485Z,-8.10
2018-03-02T04:53:12.971Z,-8.08
2018-03-02T04:58:12.328Z,-8.09
2018-03-02T05:00:39.923Z,-8.16
2018-03-02T05:03:07.576Z,-8.22
2018-03-02T05:05:35.127Z,-8.25
2018-03-02T05:08:02.692Z,-8.26
2018-03-02T05:10:30.792Z,-8.29
2018-03-02T05:12:58.482Z,-8.28
2018-03-02T05:15:26.292Z,-8.19
2018-03-02T05:17:53.947Z,-8.20
2018-03-02T05:20:21.563Z,-8.36
2018-03-02T05:22:49.146Z,-8.38
2018-03-02T05:25:17.374Z,-8.32
2018-03-02T05:27:45.014Z,-8.29
2018-03-02T05:30:12.697Z,-8.34
2018-03-02T05:32:40.276Z,-8.30
2018-03-02T05:35:08.269Z,-8.40
2018-03-02T05:37:36.194Z,-8.31
2018-03-02T05:40:03.784Z,-8.30
2018-03-02T05:42:32.571Z,-8.23
2018-03-02T05:45:00.315Z,-8.21
2018-03-02T05:47:28.215Z,-8.24
2018-03-02T05:49:55.977Z,-8.35
2018-03-02T05:52:24.160Z,-8.28
2018-03-02T05:54:51.844Z,-8.23
2018-03-02T05:57:19.776Z,-8.30
2018-03-02T05:59:47.342Z,-8.33
2018-03-02T06:02:14.941Z,-8.35
2018-03-02T06:04:42.507Z,-8.22
2018-03-02T06:07:10.792Z,-8.13
2018-03-02T06:09:38.560Z,-8.21
2018-03-02T06:12:06.175Z,-8.24
2018-03-02T06:14:33.769Z,-8.23
2018-03-02T06:17:01.376Z,-8.28
2018-03-02T06:19:29.301Z,-8.23
2018-03-02T06:21:57.079Z,-8.29
2018-03-02T06:24:26.058Z,-8.13
2018-03-02T06:26:54.241Z,-8.07
2018-03-02T06:29:22.538Z,-8.23
2018-03-02T06:31:50.253Z,-8.33
2018-03-02T06:34:18.147Z,-8.35
2018-03-02T06:36:45.697Z,-8.23
2018-03-02T06:39:13.689Z,-8.14
2018-03-02T06:41:41.350Z,-8.05
2018-03-02T06:44:09.130Z,-8.08
2018-03-02T06:46:36.731Z,-8.03
2018-03-02T06:49:04.388Z,-8.08
2018-03-02T06:51:31.984Z,-8.00
2018-03-02T06:54:00.449Z,-7.96
2018-03-02T06:56:28.087Z,-7.83
2018-03-02T06:58:55.645Z,-7.78
2018-03-02T07:01:23.373Z,-7.66
2018-03-02T07:03:51.224Z,-7.58
2018-03-02T07:06:21.977Z,-7.68
2018-03-02T07:08:53.295Z,-7.74
2018-03-02T07:11:24.944Z,-7.65
2018-03-02T07:13:57.706Z,-7.50
2018-03-02T07:16:25.491Z,-7.31
2018-03-02T07:18:53.130Z,-7.24
2018-03-02T07:21:24.800Z,-7.33
2018-03-02T07:23:53.665Z,-7.19
2018-03-02T07:26:21.304Z,-7.00
2018-03-02T07:28:51.900Z,-6.87
2018-03-02T07:31:20.332Z,-6.85
2018-03-02T07:33:50.424Z,-6.71
2018-03-02T07:36:18.229Z,-6.45
2018-03-02T07:38:45.849Z,-6.22
2018-03-02T07:41:13.735Z,-6.03
2018-03-02T07:43:41.381Z,-6.09
2018-03-02T07:46:08.959Z,-5.88
2018-03-02T07:48:36.556Z,-5.99
2018-03-02T07:51:05.289Z,-6.00
2018-03-02T07:53:33.078Z,-6.24
2018-03-02T07:56:02.234Z,-6.25
2018-03-02T07:58:30.422Z,-6.13
2018-03-02T08:01:03.934Z,-5.91
2018-03-02T08:03:32.496Z,-5.80
2018-03-02T08:06:00.181Z,-5.58
2018-03-02T08:08:27.821Z,-5.46
2018-03-02T08:10:55.457Z,-5.55
2018-03-02T08:13:23.132Z,-5.56
2018-03-02T08:15:50.831Z,-5.49
2018-03-02T08:18:18.533Z,-5.37
2018-03-02T08:20:46.143Z,-5.36
2018-03-02T08:23:14.791Z,-5.44
2018-03-02T08:25:42.379Z,-5.23
2018-03-02T08:28:10.482Z,-5.76
2018-03-02T08:30:40.590Z,-5.68
2018-03-02T08:33:08.397Z,-5.32
2018-03-02T08:35:37.373Z,-5.24
2018-03-02T08:38:05.095Z,-4.90
2018-03-02T08:40:33.335Z,-4.88
2018-03-02T08:43:01.281Z,-4.77
2018-03-02T08:45:29.152Z,-4.56
2018-03-02T08:47:56.892Z,-4.74
2018-03-02T08:50:24.792Z,-4.54
2018-03-02T08:52:52.397Z,-4.64
2018-03-02T08:55:20.169Z,-4.67
2018-03-02T08:57:47.824Z,-4.89
2018-03-02T09:00:15.792Z,-5.01
2018-03-02T09:02:43.494Z,-5.02
2018-03-02T09:05:11.640Z,-5.06
2018-03-02T09:07:39.348Z,-5.11
2018-03-02T09:10:07.185Z,-5.37
2018-03-02T09:12:35.175Z,-5.29
2018-03-02T09:15:02.797Z,-5.03
2018-03-02T09:17:31.344Z,-4.94
2018-03-02T09:19:59.138Z,-4.79
2018-03-02T09:22:29.325Z,-4.74
2018-03-02T09:24:56.935Z,-4.55
2018-03-02T09:27:24.553Z,-4.72
2018-03-02T09:29:52.198Z,-4.47
2018-03-02T09:32:19.826Z,-4.67
2018-03-02T09:34:47.416Z,-4.50
2018-03-02T09:37:15.312Z,-4.19
2018-03-02T09:39:42.870Z,-4.02
2018-03-02T09:42:10.619Z,-4.62
2018-03-02T09:44:38.344Z,-4.99
2018-03-02T09:47:06.186Z,-4.80
2018-03-02T09:49:33.874Z,-4.54
2018-03-02T09:52:01.521Z,-4.20
2018-03-02T09:54:29.166Z,-4.18
2018-03-02T09:56:56.827Z,-4.20
2018-03-02T09:59:27.044Z,-3.98
2018-03-02T10:01:54.643Z,-4.11
2018-03-02T10:04:22.794Z,-3.99
2018-03-02T10:06:50.522Z,-4.46
2018-03-02T10:09:18.238Z,-4.73
2018-03-02T10:11:45.892Z,-4.50
2018-03-02T10:14:13.577Z,-4.29
2018-03-02T10:16:41.217Z,-4.40
2018-03-02T10:19:08.966Z,-4.09
2018-03-02T10:21:36.584Z,-4.16
2018-03-02T10:24:04.208Z,-4.00
2018-03-02T10:26:31.788Z,-4.04
2018-03-02T10:28:59.424Z,-4.13
2018-03-02T10:31:28.089Z,-4.15
2018-03-02T10:33:55.682Z,-4.45
2018-03-02T10:36:23.281Z,-4.42
2018-03-02T10:38:50.966Z,-4.21
2018-03-02T10:41:18.699Z,-4.24
2018-03-02T10:43:46.276Z,-4.37
2018-03-02T10:46:13.902Z,-4.34
2018-03-02T10:48:41.474Z,-4.41
2018-03-02T10:51:09.227Z,-4.09
2018-03-02T10:53:36.888Z,-4.00
2018-03-02T10:56:04.473Z,-3.80
2018-03-02T10:58:32.052Z,-4.05
2018-03-02T11:01:05.290Z,-3.94
2018-03-02T11:03:36.707Z,-3.82
2018-03-02T11:06:08.213Z,-3.83
2018-03-02T11:08:39.636Z,-3.77
2018-03-02T11:11:07.962Z,-3.81
2018-03-02T11:13:36.857Z,-3.77
2018-03-02T11:16:04.493Z,-3.78
2018-03-02T11:18:38.430Z,-4.03
2018-03-02T11:21:06.154Z,-4.25
2018-03-02T11:23:33.890Z,-4.14
2018-03-02T11:26:01.511Z,-4.27
2018-03-02T11:28:29.166Z,-4.26
2018-03-02T11:31:06.819Z,-4.20
2018-03-02T11:33:34.423Z,-4.13
2018-03-02T11:36:02.111Z,-3.87
2018-03-02T11:38:30.378Z,-3.75
2018-03-02T11:41:01.040Z,-3.93
2018-03-02T11:43:28.716Z,-4.08
2018-03-02T11:45:56.327Z,-4.27
2018-03-02T11:48:24.148Z,-4.32
2018-03-02T11:50:54.183Z,-4.14
2018-03-02T11:53:21.908Z,-3.78
2018-03-02T11:55:52.596Z,-3.58
2018-03-02T11:58:20.358Z,-3.54
2018-03-02T12:00:49.914Z,-3.47
2018-03-02T12:03:17.532Z,-3.25
2018-03-02T12:05:45.094Z,-3.33
2018-03-02T12:08:12.909Z,-3.35
2018-03-02T12:10:40.626Z,-3.61
2018-03-02T12:13:08.338Z,-3.50
2018-03-02T12:15:37.244Z,-3.53
2018-03-02T12:18:05.286Z,-3.43
2018-03-02T12:20:34.664Z,-3.39
2018-03-02T12:23:02.667Z,-3.20
2018-03-02T12:25:31.477Z,-3.00
2018-03-02T12:27:59.197Z,-2.98
2018-03-02T12:30:27.284Z,-2.88
2018-03-02T12:32:54.850Z,-3.24
2018-03-02T12:35:22.884Z,-3.54
2018-03-02T12:37:50.594Z,-3.28
2018-03-02T12:40:18.241Z,-2.94
2018-03-02T12:42:45.915Z,-3.19
2018-03-02T12:45:13.553Z,-3.31
2018-03-02T12:47:41.177Z,-3.79
2018-03-02T12:50:08.782Z,-3.67
2018-03-02T12:52:36.498Z,-3.86
2018-03-02T12:55:04.314Z,-3.67
2018-03-02T12:57:32.085Z,-3.60
2018-03-02T12:59:59.802Z,-3.49
2018-03-02T13:02:28.070Z,-3.32
2018-03-02T13:04:55.625Z,-3.40
2018-03-02T13:07:23.678Z,-3.47
2018-03-02T13:09:51.497Z,-3.90
2018-03-02T13:12:19.208Z,-3.91
2018-03-02T13:14:46.756Z,-4.15
2018-03-02T13:17:14.683Z,-4.27
2018-03-02T13:19:42.374Z,-4.24
2018-03-02T13:22:21.855Z,-4.15
2018-03-02T13:24:49.972Z,-4.05
2018-03-02T13:27:29.726Z,-3.79
2018-03-02T13:29:57.479Z,-3.65
2018-03-02T13:32:25.678Z,-3.47
2018-03-02T13:35:11.623Z,-3.61
2018-03-02T13:37:39.564Z,-3.59
2018-03-02T13:40:18.955Z,-3.83
2018-03-02T13:42:48.622Z,-4.25
2018-03-02T13:45:16.963Z,-4.41
2018-03-02T13:50:55.590Z,-4.35
2018-03-02T13:53:25.564Z,-4.36
2018-03-02T13:55:53.548Z,-4.37
2018-03-02T13:58:23.502Z,-4.31
2018-03-02T14:00:51.184Z,-4.22
2018-03-02T14:03:30.557Z,-4.29
2018-03-02T14:05:58.261Z,-4.39
2018-03-02T14:08:26.486Z,-4.45
2018-03-02T14:10:54.275Z,-4.42
2018-03-02T14:13:22.123Z,-4.46
2018-03-02T14:15:49.881Z,-4.55
2018-03-02T14:18:17.901Z,-4.46
2018-03-02T14:20:45.955Z,-4.37
2018-03-02T14:23:13.734Z,-4.25
2018-03-02T14:28:31.999Z,-4.26
2018-03-02T14:30:59.785Z,-4.38
2018-03-02T14:33:28.979Z,-4.38
2018-03-02T14:35:56.766Z,-4.37
2018-03-02T14:38:24.590Z,-4.37
2018-03-02T14:40:52.313Z,-4.40
2018-03-02T14:43:20.198Z,-4.54
2018-03-02T14:45:48.100Z,-4.51
2018-03-02T14:48:15.738Z,-4.46
2018-03-02T14:50:43.437Z,-4.45
2018-03-02T14:53:11.433Z,-4.44
2018-03-02T14:55:39.206Z,-4.55
2018-03-02T14:58:06.867Z,-4.65
2018-03-02T15:00:36.881Z,-4.68
2018-03-02T15:03:04.555Z,-4.78
2018-03-02T15:05:32.636Z,-4.75
2018-03-02T15:08:00.299Z,-4.88
2018-03-02T15:10:30.275Z,-4.84
2018-03-02T15:12:58.935Z,-4.72
2018-03-02T15:15:27.876Z,-4.66
2018-03-02T15:17:55.568Z,-4.72
2018-03-02T15:20:23.163Z,-4.75
2018-03-02T15:22:50.726Z,-4.90
2018-03-02T15:25:19.259Z,-4.86
2018-03-02T15:27:46.924Z,-5.02
2018-03-02T15:30:15.019Z,-5.00
2018-03-02T15:32:42.687Z,-5.05
2018-03-02T15:35:11.539Z,-5.02
2018-03-02T15:37:40.694Z,-4.94
2018-03-02T15:40:11.867Z,-5.06
2018-03-02T15:42:40.324Z,-5.19
2018-03-02T15:45:08.212Z,-5.21
2018-03-02T15:47:35.954Z,-5.07
2018-03-02T15:52:37.817Z,-5.14
2018-03-02T15:55:05.491Z,-5.15
2018-03-02T15:57:33.505Z,-5.17
2018-03-02T16:00:10.894Z,-5.25
2018-03-02T16:02:38.603Z,-5.33
2018-03-02T16:05:07.114Z,-5.29
2018-03-02T16:07:34.708Z,-5.29
2018-03-02T16:10:02.496Z,-5.33
2018-03-02T16:12:30.290Z,-5.42
2018-03-02T16:14:58.179Z,-5.39
2018-03-02T16:17:27.797Z,-5.34
2018-03-02T16:19:55.581Z,-5.29
2018-03-02T16:22:30.013Z,-5.40
2018-03-02T16:24:57.621Z,-5.35
2018-03-02T16:27:25.617Z,-5.36
2018-03-02T16:29:53.392Z,-5.39
2018-03-02T16:32:21.141Z,-5.57
2018-03-02T16:34:48.764Z,-5.59
2018-03-02T16:37:16.694Z,-5.67
2018-03-02T16:39:44.439Z,-5.67
2018-03-02T16:42:13.442Z,-5.69
2018-03-02T16:44:42.919Z,-5.68
2018-03-02T16:47:10.821Z,-5.68
2018-03-02T16:49:38.718Z,-5.71
2018-03-02T16:52:06.353Z,-5.80
2018-03-02T16:54:33.963Z,-5.79
2018-03-02T16:57:02.365Z,-5.87
2018-03-02T16:59:29.971Z,-5.89
2018-03-02T17:01:57.780Z,-5.83
2018-03-02T17:04:25.473Z,-5.73
2018-03-02T17:06:53.166Z,-5.90
2018-03-02T17:09:20.807Z,-6.06
2018-03-02T17:11:48.406Z,-5.98
2018-03-02T17:14:16.589Z,-6.07
2018-03-02T17:16:44.312Z,-6.08
2018-03-02T17:19:12.050Z,-6.19
2018-03-02T17:21:39.903Z,-6.24
2018-03-02T17:24:07.676Z,-6.20
2018-03-02T17:26:35.302Z,-6.19
2018-03-02T17:29:02.898Z,-6.19
2018-03-02T17:31:30.924Z,-6.24
2018-03-02T17:33:58.831Z,-6.28
2018-03-02T17:36:27.109Z,-6.29
2018-03-02T17:38:54.724Z,-6.29
2018-03-02T17:41:23.141Z,-6.33
2018-03-02T17:43:50.798Z,-6.34
2018-03-02T17:46:18.744Z,-6.34
2018-03-02T17:48:46.425Z,-6.31
2018-03-02T17:51:14.116Z,-6.28
2018-03-02T17:53:41.770Z,-6.25
2018-03-02T17:56:09.485Z,-6.20
2018-03-02T17:58:37.152Z,-6.15
2018-03-02T18:01:04.931Z,-6.02
2018-03-02T18:03:33.046Z,-6.01
2018-03-02T18:06:00.829Z,-6.05
2018-03-02T18:08:28.578Z,-6.12
2018-03-02T18:10:56.345Z,-6.13
2018-03-02T18:13:25.794Z,-6.21
2018-03-02T18:15:53.827Z,-6.18
2018-03-02T18:18:21.647Z,-6.21
2018-03-02T18:20:49.482Z,-6.17
2018-03-02T18:23:17.647Z,-6.19
2018-03-02T18:25:45.328Z,-6.16
2018-03-02T18:28:13.146Z,-6.10
2018-03-02T18:30:40.864Z,-6.11
2018-03-02T18:33:08.967Z,-6.10
2018-03-02T18:35:36.840Z,-6.15
2018-03-02T18:38:04.620Z,-6.17
2018-03-02T18:40:32.502Z,-6.18
2018-03-02T18:43:00.061Z,-6.17
2018-03-02T18:45:27.801Z,-6.15
2018-03-02T18:47:55.410Z,-6.17
2018-03-02T18:50:25.752Z,-6.20
2018-03-02T18:52:53.731Z,-6.19
2018-03-02T18:55:21.451Z,-6.17
2018-03-02T18:57:49.020Z,-6.08
2018-03-02T19:00:16.646Z,-5.80
2018-03-02T19:02:44.454Z,-5.68
2018-03-02T19:05:12.390Z,-5.81
2018-03-02T19:07:39.992Z,-5.92
2018-03-02T19:10:13.056Z,-5.87
2018-03-02T19:12:41.508Z,-5.88
2018-03-02T19:15:09.256Z,-5.89
2018-03-02T19:17:37.605Z,-5.79
2018-03-02T19:20:05.340Z,-5.77
2018-03-02T19:22:38.782Z,-5.88
2018-03-02T19:25:11.382Z,-5.98
2018-03-02T19:27:40.498Z,-6.02
2018-03-02T19:30:08.257Z,-6.06
2018-03-02T19:32:35.990Z,-5.99
2018-03-02T19:35:03.715Z,-5.99
2018-03-02T19:37:35.807Z,-5.91
2018-03-02T19:40:03.544Z,-5.77
2018-03-02T19:42:31.240Z,-5.71
2018-03-02T19:45:00.836Z,-5.67
2018-03-02T19:47:33.944Z,-5.57
2018-03-02T19:50:01.698Z,-5.73
2018-03-02T19:52:29.717Z,-5.80
2018-03-02T19:54:57.991Z,-5.96
2018-03-02T19:57:29.833Z,-6.06
2018-03-02T20:00:03.703Z,-6.12
2018-03-02T20:02:31.973Z,-6.16
2018-03-02T20:05:00.731Z,-6.19
2018-03-02T20:07:28.376Z,-6.14
2018-03-02T20:09:55.966Z,-6.12
2018-03-02T20:12:23.544Z,-6.10
2018-03-02T20:14:51.219Z,-6.10
2018-03-02T20:17:18.889Z,-6.13
2018-03-02T20:19:46.819Z,-6.19
2018-03-02T20:22:14.695Z,-6.17
2018-03-02T20:24:42.290Z,-6.19
2018-03-02T20:27:10.192Z,-6.13
2018-03-02T20:29:38.190Z,-6.07
2018-03-02T20:32:05.863Z,-5.96
2018-03-02T20:34:35.122Z,-5.88
2018-03-02T20:37:02.719Z,-5.90
2018-03-02T20:39:30.386Z,-6.00
2018-03-02T20:41:58.137Z,-6.05
2018-03-02T20:44:25.859Z,-6.16
2018-03-02T20:46:53.452Z,-6.15
2018-03-02T20:49:21.043Z,-6.22
2018-03-02T20:51:48.857Z,-6.20
2018-03-02T20:54:16.881Z,-6.07
2018-03-02T20:56:44.508Z,-6.09
2018-03-02T20:59:12.184Z,-6.10
2018-03-02T21:01:39.835Z,-6.17
2018-03-02T21:04:07.543Z,-6.16
2018-03-02T21:06:35.196Z,-6.15
2018-03-02T21:09:03.853Z,-6.07
2018-03-02T21:11:32.356Z,-6.00
2018-03-02T21:14:00.109Z,-6.03
2018-03-02T21:16:27.735Z,-6.07
2018-03-02T21:18:55.291Z,-6.04
2018-03-02T21:21:24.297Z,-6.19
2018-03-02T21:23:51.927Z,-6.29
2018-03-02T21:26:19.545Z,-6.32
2018-03-02T21:28:47.160Z,-6.38
2018-03-02T21:31:14.955Z,-6.45
2018-03-02T21:33:45.050Z,-6.45
2018-03-02T21:36:13.997Z,-6.39
2018-03-02T21:38:41.675Z,-6.30
2018-03-02T21:41:09.635Z,-6.72
2018-03-02T21:43:37.328Z,-6.48
2018-03-02T21:46:05.375Z,-6.75
2018-03-02T21:48:32.993Z,-6.68
2018-03-02T21:51:00.749Z,-6.71
2018-03-02T21:53:28.940Z,-6.71
2018-03-02T21:55:56.873Z,-6.60
2018-03-02T21:58:25.232Z,-6.62
2018-03-02T22:00:52.864Z,-6.66
2018-03-02T22:03:21.880Z,-6.58
2018-03-02T22:05:49.601Z,-6.58
2018-03-02T22:08:17.597Z,-6.54
2018-03-02T22:10:45.632Z,-6.38
2018-03-02T22:13:13.419Z,-6.21
2018-03-02T22:15:42.124Z,-6.14
2018-03-02T22:18:09.743Z,-6.06
2018-03-02T22:20:37.648Z,-6.02
2018-03-02T22:23:05.289Z,-5.97
2018-03-02T22:25:32.992Z,-5.99
2018-03-02T22:28:00.606Z,-6.01
2018-03-02T22:30:28.362Z,-6.02
2018-03-02T22:32:56.067Z,-6.00
2018-03-02T22:35:23.800Z,-6.21
2018-03-02T22:37:51.419Z,-6.33
2018-03-02T22:40:19.272Z,-6.29
2018-03-02T22:42:46.941Z,-6.21
2018-03-02T22:45:14.817Z,-6.26
2018-03-02T22:47:42.565Z,-6.35
2018-03-02T22:50:10.299Z,-6.20
2018-03-02T22:52:37.974Z,-6.33
2018-03-02T22:55:05.706Z,-6.42
2018-03-02T22:57:33.324Z,-6.39
2018-03-02T23:00:01.008Z,-6.42
2018-03-02T23:02:28.723Z,-6.28
2018-03-02T23:04:56.331Z,-6.14
2018-03-02T23:07:26.757Z,-6.04
2018-03-02T23:09:54.524Z,-5.93
2018-03-02T23:12:22.115Z,-5.97
2018-03-02T23:14:49.730Z,-5.89
2018-03-02T23:17:17.548Z,-5.87
2018-03-02T23:19:45.202Z,-5.97
2018-03-02T23:22:12.870Z,-6.21
2018-03-02T23:24:40.699Z,-6.13
2018-03-02T23:27:09.573Z,-6.10
2018-03-02T23:29:37.290Z,-6.22
2018-03-02T23:32:05.228Z,-6.26
2018-03-02T23:34:33.075Z,-6.24
2018-03-02T23:37:03.964Z,-6.33
2018-03-02T23:39:31.584Z,-6.46
2018-03-02T23:42:01.559Z,-6.59
2018-03-02T23:44:30.806Z,-6.65
2018-03-02T23:46:59.053Z,-6.62
2018-03-02T23:49:28.901Z,-6.59
2018-03-02T23:51:56.738Z,-6.53
2018-03-02T23:54:24.482Z,-6.34
2018-03-02T23:56:54.650Z,-6.16
2018-03-02T23:59:22.257Z,-6.12
